createdAt,value
2023-01-13T00:02:07.351Z,84.57
2023-01-13T00:04:39.332Z,84.31
2023-01-13T00:07:11.731Z,84.71
2023-01-13T00:09:46.810Z,83.53
2023-01-13T00:12:20.813Z,84.57
2023-01-13T00:14:52.874Z,84.69
2023-01-13T00:19:59.673Z,84.41
2023-01-13T00:22:32.651Z,83.75
2023-01-13T00:25:08.472Z,85.24
2023-01-13T00:27:41.128Z,83.13
2023-01-13T00:30:14.614Z,83.72
2023-01-13T00:32:47.410Z,83.81
2023-01-13T00:35:19.793Z,83.78
2023-01-13T00:37:52.289Z,84.33
2023-01-13T00:40:27.368Z,83.94
2023-01-13T00:43:12.292Z,83.79
2023-01-13T00:45:44.525Z,84.32
2023-01-13T00:48:17.189Z,83.70
2023-01-13T00:50:49.949Z,83.07
2023-01-13T00:53:22.448Z,82.02
2023-01-13T00:56:03.038Z,82.65
2023-01-13T00:58:46.831Z,83.96
2023-01-13T01:01:21.967Z,81.98
2023-01-13T01:03:55.868Z,82.61
2023-01-13T01:06:29.397Z,81.90
2023-01-13T01:09:03.351Z,81.83
2023-01-13T01:11:38.177Z,81.90
2023-01-13T01:14:10.543Z,81.35
2023-01-13T01:16:44.413Z,81.00
2023-01-13T01:19:19.253Z,80.13
2023-01-13T01:21:51.151Z,80.34
2023-01-13T01:24:23.425Z,80.08
2023-01-13T01:26:57.830Z,80.52
2023-01-13T01:29:30.309Z,81.61
2023-01-13T01:32:02.190Z,80.49
2023-01-13T01:34:34.895Z,80.17
2023-01-13T01:37:06.896Z,81.53
2023-01-13T01:39:39.321Z,80.66
2023-01-13T01:42:30.847Z,80.38
2023-01-13T01:45:15.209Z,80.43
2023-01-13T01:47:51.755Z,79.70
2023-01-13T01:50:24.372Z,79.45
2023-01-13T01:53:00.209Z,80.27
2023-01-13T01:55:37.235Z,79.19
2023-01-13T01:58:18.766Z,78.30
2023-01-13T02:00:51.495Z,77.87
2023-01-13T02:03:24.405Z,77.89
2023-01-13T02:06:11.588Z,78.28
2023-01-13T02:08:44.783Z,77.34
2023-01-13T02:11:43.988Z,78.74
2023-01-13T02:14:19.361Z,79.59
2023-01-13T02:17:12.082Z,78.31
2023-01-13T02:20:27.710Z,78.96
2023-01-13T02:23:37.049Z,78.47
2023-01-13T02:26:41.532Z,78.25
2023-01-13T02:29:32.391Z,77.82
2023-01-13T02:32:16.328Z,77.66
2023-01-13T02:34:56.776Z,77.33
2023-01-13T02:37:33.521Z,78.12
2023-01-13T02:40:10.491Z,77.37
2023-01-13T02:43:01.113Z,76.96
2023-01-13T02:45:39.684Z,76.75
2023-01-13T02:48:19.250Z,77.01
2023-01-13T02:50:56.953Z,77.62
2023-01-13T02:53:34.663Z,77.34
2023-01-13T02:56:10.077Z,77.13
2023-01-13T02:58:45.171Z,77.23
2023-01-13T03:01:18.118Z,77.23
2023-01-13T03:03:53.332Z,77.12
2023-01-13T03:06:40.210Z,76.65
2023-01-13T03:09:20.211Z,76.32
2023-01-13T03:11:59.890Z,76.64
2023-01-13T03:14:41.700Z,77.25
2023-01-13T03:17:25.453Z,76.53
2023-01-13T03:20:08.891Z,76.43
2023-01-13T03:22:48.479Z,74.70
2023-01-13T03:25:27.411Z,75.12
2023-01-13T03:28:02.838Z,75.42
2023-01-13T03:30:41.370Z,74.97
2023-01-13T03:33:19.003Z,76.20
2023-01-13T03:35:58.931Z,75.61
2023-01-13T03:38:48.378Z,75.95
2023-01-13T03:41:25.191Z,76.10
2023-01-13T03:44:19.831Z,75.21
2023-01-13T03:46:57.911Z,75.67
2023-01-13T03:49:35.794Z,75.99
2023-01-13T03:52:15.712Z,76.05
2023-01-13T03:54:52.769Z,76.69
2023-01-13T03:57:39.363Z,76.55
2023-01-13T04:00:16.008Z,76.76
2023-01-13T04:02:57.971Z,76.48
2023-01-13T04:05:32.054Z,76.99
2023-01-13T04:08:19.210Z,76.64
2023-01-13T04:10:58.678Z,76.36
2023-01-13T04:13:35.054Z,75.53
2023-01-13T04:16:11.547Z,76.87
2023-01-13T04:18:59.196Z,77.40
2023-01-13T04:21:46.530Z,75.60
2023-01-13T04:24:24.022Z,75.84
2023-01-13T04:26:56.932Z,75.85
2023-01-13T04:29:28.830Z,76.73
2023-01-13T04:32:07.836Z,76.60
2023-01-13T04:34:39.757Z,76.58
2023-01-13T04:37:12.130Z,76.32
2023-01-13T04:39:46.771Z,76.79
2023-01-13T04:42:19.097Z,77.08
2023-01-13T04:44:50.779Z,77.39
2023-01-13T04:47:23.051Z,77.28
2023-01-13T04:49:54.777Z,76.75
2023-01-13T04:52:27.093Z,77.06
2023-01-13T04:55:01.664Z,77.56
2023-01-13T04:57:35.337Z,77.45
2023-01-13T05:00:09.792Z,76.57
2023-01-13T05:02:42.255Z,77.16
2023-01-13T05:05:16.091Z,76.45
2023-01-13T05:07:49.113Z,76.45
2023-01-13T05:10:27.531Z,76.39
2023-01-13T05:16:40.454Z,76.04
2023-01-13T05:19:13.596Z,76.37
2023-01-13T05:21:58.012Z,76.07
2023-01-13T05:24:43.432Z,77.71
2023-01-13T05:27:18.323Z,76.70
2023-01-13T05:29:50.873Z,76.83
2023-01-13T05:32:22.737Z,78.47
2023-01-13T05:34:55.270Z,78.14
2023-01-13T05:37:28.152Z,78.53
2023-01-13T05:40:12.954Z,78.21
2023-01-13T05:43:00.278Z,77.92
2023-01-13T05:45:34.437Z,78.19
2023-01-13T05:48:06.403Z,78.01
2023-01-13T05:50:38.879Z,77.42
2023-01-13T05:53:10.870Z,77.70
2023-01-13T05:55:44.214Z,77.48
2023-01-13T05:58:20.476Z,77.23
2023-01-13T06:00:55.580Z,76.56
2023-01-13T06:03:27.398Z,76.04
2023-01-13T06:06:02.000Z,74.04
2023-01-13T06:08:34.576Z,75.13
2023-01-13T06:11:07.044Z,75.75
2023-01-13T06:13:41.782Z,76.48
2023-01-13T06:16:14.270Z,76.63
2023-01-13T06:18:46.034Z,75.64
2023-01-13T06:21:33.512Z,75.52
2023-01-13T06:24:05.589Z,75.40
2023-01-13T06:26:42.034Z,75.58
2023-01-13T06:29:17.153Z,75.75
2023-01-13T06:31:49.673Z,75.59
2023-01-13T06:34:21.898Z,75.69
2023-01-13T06:36:57.217Z,75.29
2023-01-13T06:39:31.972Z,75.39
2023-01-13T06:42:16.854Z,75.51
2023-01-13T06:44:52.492Z,75.57
2023-01-13T06:47:25.475Z,74.67
2023-01-13T06:49:57.635Z,76.04
2023-01-13T06:52:30.949Z,75.68
2023-01-13T06:55:03.253Z,76.49
2023-01-13T06:57:35.797Z,76.16
2023-01-13T07:00:12.732Z,77.31
2023-01-13T07:02:45.300Z,77.09
2023-01-13T07:05:18.594Z,77.11
2023-01-13T07:07:50.876Z,77.26
2023-01-13T07:10:25.261Z,77.56
2023-01-13T07:13:09.794Z,78.34
2023-01-13T07:15:44.372Z,77.54
2023-01-13T07:18:16.893Z,78.12
2023-01-13T07:20:55.614Z,77.57
2023-01-13T07:23:28.379Z,77.50
2023-01-13T07:26:00.999Z,76.89
2023-01-13T07:28:34.389Z,76.48
2023-01-13T07:31:16.031Z,75.85
2023-01-13T07:33:48.876Z,74.53
2023-01-13T07:36:21.031Z,74.97
2023-01-13T07:38:54.912Z,74.32
2023-01-13T07:41:39.431Z,75.66
2023-01-13T07:44:12.273Z,74.35
2023-01-13T07:46:47.423Z,74.63
2023-01-13T07:49:20.261Z,74.51
2023-01-13T07:51:52.541Z,74.81
2023-01-13T07:54:39.730Z,73.46
2023-01-13T07:57:13.113Z,73.65
2023-01-13T07:59:45.955Z,73.22
2023-01-13T08:02:22.118Z,73.60
2023-01-13T08:04:54.991Z,73.11
2023-01-13T08:07:27.380Z,72.46
2023-01-13T08:10:00.181Z,72.79
2023-01-13T08:12:48.786Z,72.33
2023-01-13T08:15:27.330Z,72.49
2023-01-13T08:18:02.151Z,70.69
2023-01-13T08:20:35.099Z,71.53
2023-01-13T08:23:07.857Z,70.49
2023-01-13T08:25:40.781Z,69.86
2023-01-13T08:28:13.321Z,69.98
2023-01-13T08:30:46.182Z,69.65
2023-01-13T08:33:21.651Z,69.69
2023-01-13T08:35:54.442Z,69.49
2023-01-13T08:38:27.269Z,69.52
2023-01-13T08:41:00.183Z,70.87
2023-01-13T08:43:32.459Z,70.30
2023-01-13T08:46:07.509Z,70.20
2023-01-13T08:48:42.669Z,70.64
2023-01-13T08:51:15.584Z,70.96
2023-01-13T08:53:47.835Z,70.86
2023-01-13T08:56:20.511Z,71.30
2023-01-13T08:58:52.754Z,71.66
2023-01-13T09:01:27.279Z,71.99
2023-01-13T09:04:03.201Z,71.31
2023-01-13T09:06:36.485Z,71.22
2023-01-13T09:09:08.723Z,71.04
2023-01-13T09:11:57.545Z,70.89
2023-01-13T09:14:32.110Z,70.99
2023-01-13T09:17:05.137Z,70.40
2023-01-13T09:19:40.521Z,70.01
2023-01-13T09:22:17.896Z,70.56
2023-01-13T09:24:50.244Z,69.84
2023-01-13T09:27:24.075Z,70.13
2023-01-13T09:29:56.139Z,69.65
2023-01-13T09:32:28.801Z,69.63
2023-01-13T09:35:01.100Z,69.36
2023-01-13T09:37:35.289Z,69.31
2023-01-13T09:40:09.930Z,69.56
2023-01-13T09:43:00.706Z,68.39
2023-01-13T09:45:37.911Z,68.38
2023-01-13T09:48:18.083Z,67.56
2023-01-13T09:51:10.378Z,70.15
2023-01-13T09:53:47.360Z,69.64
2023-01-13T09:56:19.758Z,69.46
2023-01-13T09:58:52.566Z,70.05
2023-01-13T10:01:33.021Z,69.55
2023-01-13T10:04:09.245Z,70.13
2023-01-13T10:06:49.503Z,68.88
2023-01-13T10:09:26.627Z,70.10
2023-01-13T10:12:15.028Z,69.59
2023-01-13T10:14:56.055Z,69.45
2023-01-13T10:17:35.603Z,68.67
2023-01-13T10:20:20.353Z,68.38
2023-01-13T10:23:10.343Z,68.90
2023-01-13T10:26:04.158Z,68.44
2023-01-13T10:28:36.062Z,66.84
2023-01-13T10:31:15.080Z,66.99
2023-01-13T10:33:47.301Z,66.77
2023-01-13T10:36:21.878Z,65.62
2023-01-13T10:38:57.866Z,66.72
2023-01-13T10:41:33.523Z,66.41
2023-01-13T10:44:09.588Z,65.79
2023-01-13T10:46:56.984Z,66.04
2023-01-13T10:49:36.777Z,66.37
2023-01-13T10:52:29.770Z,67.21
2023-01-13T10:55:06.504Z,65.72
2023-01-13T10:57:40.885Z,66.21
2023-01-13T11:00:31.164Z,64.79
2023-01-13T11:03:19.046Z,66.49
2023-01-13T11:05:59.660Z,65.40
2023-01-13T11:08:34.407Z,64.75
2023-01-13T11:11:44.053Z,65.29
2023-01-13T11:14:39.786Z,65.33
2023-01-13T11:17:27.253Z,65.58
2023-01-13T11:20:07.484Z,64.51
2023-01-13T11:22:45.858Z,63.94
2023-01-13T11:25:24.561Z,63.01
2023-01-13T11:28:04.228Z,62.61
2023-01-13T11:30:49.951Z,62.49
2023-01-13T11:33:42.729Z,62.80
2023-01-13T11:36:20.741Z,61.96
2023-01-13T11:38:55.473Z,61.72
2023-01-13T11:41:36.355Z,61.97
2023-01-13T11:44:22.636Z,61.63
2023-01-13T11:46:56.946Z,61.88
2023-01-13T11:49:32.234Z,61.04
2023-01-13T11:52:14.225Z,60.09
2023-01-13T11:55:04.517Z,61.14
2023-01-13T11:57:59.165Z,60.35
2023-01-13T12:00:46.160Z,59.45
2023-01-13T12:03:31.217Z,60.14
2023-01-13T12:06:20.062Z,59.04
2023-01-13T12:09:27.594Z,58.78
2023-01-13T12:12:23.224Z,57.48
2023-01-13T12:15:36.101Z,58.44
2023-01-13T12:18:26.384Z,58.10
2023-01-13T12:21:14.963Z,57.14
2023-01-13T12:23:55.154Z,58.27
2023-01-13T12:26:27.775Z,58.97
2023-01-13T12:29:06.413Z,57.73
2023-01-13T12:31:42.447Z,58.38
2023-01-13T12:34:30.248Z,57.08
2023-01-13T12:37:11.788Z,57.19
2023-01-13T12:39:52.545Z,56.87
2023-01-13T12:42:47.834Z,56.33
2023-01-13T12:45:33.949Z,55.43
2023-01-13T12:48:06.016Z,55.52
2023-01-13T12:50:45.790Z,55.99
2023-01-13T12:53:34.951Z,56.05
2023-01-13T12:56:38.980Z,55.03
2023-01-13T12:59:52.121Z,55.04
2023-01-13T13:02:37.638Z,53.90
2023-01-13T13:05:43.205Z,53.79
2023-01-13T13:09:39.484Z,54.19
2023-01-13T13:12:48.306Z,54.02
2023-01-13T13:15:25.486Z,53.40
2023-01-13T13:18:09.944Z,53.77
2023-01-13T13:21:00.684Z,54.38
2023-01-13T13:24:06.625Z,53.67
2023-01-13T13:26:47.228Z,53.71
2023-01-13T13:29:30.866Z,53.41
2023-01-13T13:32:41.443Z,53.22
2023-01-13T13:35:43.647Z,52.62
2023-01-13T13:38:55.864Z,53.24
2023-01-13T13:41:44.855Z,52.88
2023-01-13T13:44:41.689Z,52.42
2023-01-13T13:47:16.300Z,53.23
2023-01-13T13:49:54.153Z,53.30
2023-01-13T13:52:30.286Z,53.82
2023-01-13T13:55:13.762Z,53.74
2023-01-13T13:57:51.011Z,53.34
2023-01-13T14:00:27.853Z,53.80
2023-01-13T14:03:02.687Z,52.43
2023-01-13T14:05:42.021Z,53.42
2023-01-13T14:08:19.857Z,52.38
2023-01-13T14:10:52.240Z,52.92
2023-01-13T14:13:47.418Z,53.99
2023-01-13T14:16:20.310Z,54.42
2023-01-13T14:18:52.471Z,54.08
2023-01-13T14:21:28.785Z,52.68
2023-01-13T14:24:05.976Z,53.23
2023-01-13T14:26:38.734Z,52.35
2023-01-13T14:29:21.891Z,51.80
2023-01-13T14:31:56.787Z,52.45
2023-01-13T14:34:33.373Z,51.33
2023-01-13T14:37:06.386Z,51.59
2023-01-13T14:39:43.139Z,50.67
2023-01-13T14:42:17.320Z,51.63
2023-01-13T14:44:56.395Z,51.01
2023-01-13T14:47:33.487Z,50.13
2023-01-13T14:50:09.125Z,48.88
2023-01-13T14:52:51.125Z,50.25
2023-01-13T14:55:33.970Z,50.04
2023-01-13T14:58:26.993Z,50.67
2023-01-13T15:01:35.360Z,51.40
2023-01-13T15:04:20.726Z,50.96
2023-01-13T15:06:55.707Z,50.09
2023-01-13T15:09:30.768Z,49.89
2023-01-13T15:12:18.845Z,49.36
2023-01-13T15:14:54.556Z,50.88
2023-01-13T15:17:28.650Z,49.70
2023-01-13T15:20:07.099Z,49.70
2023-01-13T15:22:39.400Z,49.68
2023-01-13T15:25:12.379Z,50.68
2023-01-13T15:27:46.295Z,51.04
2023-01-13T15:30:20.204Z,50.58
2023-01-13T15:32:59.725Z,51.22
2023-01-13T15:35:34.957Z,51.11
2023-01-13T15:38:14.396Z,50.73
2023-01-13T15:40:50.714Z,52.05
2023-01-13T15:43:38.853Z,51.98
2023-01-13T15:46:34.562Z,52.03
2023-01-13T15:49:16.693Z,52.10
2023-01-13T15:51:52.533Z,52.16
2023-01-13T15:54:25.212Z,52.51
2023-01-13T15:56:58.220Z,52.61
2023-01-13T15:59:31.491Z,52.29
2023-01-13T16:02:04.589Z,52.50
2023-01-13T16:04:40.032Z,52.06
2023-01-13T16:07:18.580Z,52.38
2023-01-13T16:09:50.985Z,51.96
2023-01-13T16:12:23.369Z,51.78
2023-01-13T16:14:55.195Z,51.95
2023-01-13T16:17:30.382Z,52.18
2023-01-13T16:20:05.241Z,51.92
2023-01-13T16:22:37.591Z,52.10
2023-01-13T16:25:10.473Z,52.84
2023-01-13T16:27:43.079Z,51.13
2023-01-13T16:30:25.884Z,52.09
2023-01-13T16:32:58.215Z,51.34
2023-01-13T16:35:35.585Z,51.46
2023-01-13T16:38:19.790Z,50.74
2023-01-13T16:40:52.623Z,51.32
2023-01-13T16:43:24.793Z,51.69
2023-01-13T16:45:56.596Z,51.62
2023-01-13T16:48:28.754Z,51.52
2023-01-13T16:51:05.438Z,52.02
2023-01-13T16:53:37.718Z,53.41
2023-01-13T16:56:20.914Z,53.98
2023-01-13T16:58:53.586Z,54.64
2023-01-13T17:01:28.710Z,55.69
2023-01-13T17:04:03.358Z,54.31
2023-01-13T17:06:42.883Z,53.90
2023-01-13T17:09:19.358Z,55.25
2023-01-13T17:11:53.441Z,55.90
2023-01-13T17:14:26.392Z,55.83
2023-01-13T17:16:59.637Z,55.65
2023-01-13T17:19:31.806Z,55.92
2023-01-13T17:22:06.380Z,57.27
2023-01-13T17:24:38.619Z,58.40
2023-01-13T17:27:10.168Z,59.00
2023-01-13T17:32:58.787Z,60.18
2023-01-13T17:35:30.654Z,60.48
2023-01-13T17:38:05.205Z,59.90
2023-01-13T17:40:37.383Z,60.25
2023-01-13T17:43:09.225Z,61.29
2023-01-13T17:45:45.047Z,60.60
2023-01-13T17:48:17.043Z,61.26
2023-01-13T17:50:52.433Z,60.69
2023-01-13T17:53:27.115Z,60.21
2023-01-13T17:55:59.388Z,60.00
2023-01-13T17:58:31.740Z,59.56
2023-01-13T18:01:04.148Z,59.65
2023-01-13T18:03:36.071Z,59.59
2023-01-13T18:06:09.295Z,59.61
2023-01-13T18:08:44.149Z,61.02
2023-01-13T18:11:19.082Z,60.37
2023-01-13T18:13:55.280Z,59.20
2023-01-13T18:16:30.263Z,59.20
2023-01-13T18:19:15.701Z,59.67
2023-01-13T18:22:01.220Z,59.75
2023-01-13T18:24:48.394Z,59.11
2023-01-13T18:27:27.165Z,58.70
2023-01-13T18:30:01.437Z,57.86
2023-01-13T18:32:36.144Z,59.55
2023-01-13T18:35:10.685Z,60.05
2023-01-13T18:37:45.403Z,59.04
2023-01-13T18:40:20.342Z,58.67
2023-01-13T18:42:55.078Z,58.98
2023-01-13T18:45:29.782Z,59.35
2023-01-13T18:48:05.156Z,58.57
2023-01-13T18:50:37.890Z,59.11
2023-01-13T18:53:10.792Z,58.94
2023-01-13T18:55:45.769Z,58.06
2023-01-13T18:58:19.011Z,58.07
2023-01-13T19:00:51.212Z,59.06
2023-01-13T19:03:30.051Z,58.06
2023-01-13T19:06:06.239Z,58.42
2023-01-13T19:08:38.759Z,57.62
2023-01-13T19:11:13.819Z,58.85
2023-01-13T19:13:46.603Z,57.70
2023-01-13T19:16:19.920Z,57.28
2023-01-13T19:18:52.769Z,58.48
2023-01-13T19:21:25.496Z,59.21
2023-01-13T19:23:58.579Z,58.79
2023-01-13T19:26:33.421Z,58.46
2023-01-13T19:29:06.061Z,57.61
2023-01-13T19:31:38.377Z,56.84
2023-01-13T19:34:11.099Z,56.54
2023-01-13T19:36:43.201Z,56.47
2023-01-13T19:39:15.808Z,58.27
2023-01-13T19:42:03.125Z,57.94
2023-01-13T19:44:48.227Z,57.64
2023-01-13T19:47:20.569Z,57.57
2023-01-13T19:49:53.327Z,58.10
2023-01-13T19:52:25.631Z,57.34
2023-01-13T19:54:58.221Z,57.66
2023-01-13T19:57:39.356Z,58.92
2023-01-13T20:03:36.452Z,58.59
2023-01-13T20:06:10.995Z,59.11
2023-01-13T20:08:46.484Z,59.31
2023-01-13T20:11:31.800Z,58.52
2023-01-13T20:14:07.145Z,58.47
2023-01-13T20:16:39.696Z,58.75
2023-01-13T20:19:12.317Z,58.88
2023-01-13T20:21:46.597Z,58.17
2023-01-13T20:24:20.658Z,58.96
2023-01-13T20:26:54.199Z,59.40
2023-01-13T20:29:29.005Z,59.14
2023-01-13T20:32:01.668Z,58.79
2023-01-13T20:34:34.101Z,58.12
2023-01-13T20:37:06.928Z,59.78
2023-01-13T20:39:40.478Z,58.57
2023-01-13T20:42:25.519Z,58.62
2023-01-13T20:45:01.416Z,59.45
2023-01-13T20:47:34.285Z,60.49
2023-01-13T20:50:06.681Z,60.24
2023-01-13T20:52:39.236Z,59.24
2023-01-13T20:55:12.015Z,58.19
2023-01-13T20:57:48.686Z,58.35
2023-01-13T21:00:24.824Z,58.24
2023-01-13T21:02:57.516Z,58.82
2023-01-13T21:05:30.036Z,58.82
2023-01-13T21:08:02.676Z,58.64
